FHFEA LFNS-LEBL
Flight info
| Callsign | FHFEA |
|---|---|
| Flight time | N/A |
| Altitude | 9000 |
| Route | LFMD/N0160F080 DCT LFMQ DCT LFMT DCT LFMP/N0158F090 DCT LEGE |
| Aircraft | PA24/L-SDGRY/S |
Departure
| Time | 2026-04-30 19:01 |
|---|---|
| Airport | Sistéron-Vaumeilh Airfield (LFNS) |
Arrival
| Time | N/A |
|---|---|
| Airport | Josep Tarradellas Barcelona-El Prat Airport (LEBL) |
| Time | Latitude | Longitude | Altitude | Speed | Heading |
|---|---|---|---|---|---|
| 2026-04-30 18:48 | 44.28275 | 5.93269 | 1782 ft | 0 kts | 314° |
| 2026-04-30 18:50 | 44.28279 | 5.93263 | 1782 ft | 4 kts | 299° |
| 2026-04-30 18:50 | 44.28278 | 5.93258 | 1786 ft | 0 kts | 256° |
| 2026-04-30 18:53 | 44.28275 | 5.93249 | 1784 ft | 2 kts | 235° |
| 2026-04-30 18:53 | 44.28273 | 5.93244 | 1784 ft | 0 kts | 251° |
| 2026-04-30 18:55 | 44.28259 | 5.93142 | 1785 ft | 0 kts | 251° |
| 2026-04-30 18:55 | 44.28257 | 5.93127 | 1786 ft | 6 kts | 263° |
| 2026-04-30 18:56 | 44.28239 | 5.93040 | 1790 ft | 0 kts | 217° |
| 2026-04-30 18:57 | 44.28255 | 5.92989 | 1786 ft | 15 kts | 346° |
| 2026-04-30 18:57 | 44.28357 | 5.92973 | 1788 ft | 20 kts | 355° |
| 2026-04-30 18:57 | 44.28627 | 5.92941 | 1788 ft | 38 kts | 356° |
| 2026-04-30 18:58 | 44.28868 | 5.92911 | 1795 ft | 0 kts | 352° |
| 2026-04-30 18:58 | 44.28898 | 5.92906 | 1797 ft | 3 kts | 329° |
| 2026-04-30 18:58 | 44.28904 | 5.92891 | 1799 ft | 3 kts | 279° |
| 2026-04-30 18:59 | 44.28918 | 5.92849 | 1799 ft | 0 kts | 173° |
| 2026-04-30 19:00 | 44.28490 | 5.92914 | 1798 ft | 79 kts | 174° |
| 2026-04-30 19:00 | 44.27859 | 5.93000 | 1960 ft | 98 kts | 181° |
| 2026-04-30 19:00 | 44.26454 | 5.92872 | 2369 ft | 90 kts | 166° |
| 2026-04-30 19:01 | 44.25555 | 5.93643 | 2552 ft | 104 kts | 146° |
| 2026-04-30 19:01 | 44.24993 | 5.93905 | 2955 ft | 54 kts | 193° |
| 2026-04-30 19:02 | 44.24015 | 5.94208 | 3292 ft | 87 kts | 147° |
| 2026-04-30 19:02 | 44.23070 | 5.95291 | 3774 ft | 101 kts | 163° |
| 2026-04-30 19:03 | 44.21600 | 5.95701 | 4199 ft | 115 kts | 172° |
| 2026-04-30 19:03 | 44.20095 | 5.96045 | 4181 ft | 86 kts | 171° |
| 2026-04-30 19:04 | 44.18930 | 5.96332 | 4286 ft | 92 kts | 172° |
| 2026-04-30 19:04 | 44.17577 | 5.96692 | 4579 ft | 104 kts | 171° |
| 2026-04-30 19:05 | 44.16221 | 5.97061 | 4719 ft | 96 kts | 171° |
| 2026-04-30 19:05 | 44.14958 | 5.97734 | 4718 ft | 98 kts | 159° |
| 2026-04-30 19:06 | 44.13683 | 5.98455 | 4726 ft | 99 kts | 161° |
| 2026-04-30 19:06 | 44.13020 | 5.98725 | 4728 ft | 100 kts | 167° |
| 2026-04-30 19:06 | 44.11539 | 5.99294 | 4736 ft | 120 kts | 166° |
| 2026-04-30 19:07 | 44.09907 | 5.99828 | 4734 ft | 121 kts | 169° |
| 2026-04-30 19:07 | 44.09085 | 6.00065 | 4732 ft | 120 kts | 170° |
| 2026-04-30 19:08 | 44.07453 | 6.00542 | 4733 ft | 120 kts | 169° |
| 2026-04-30 19:08 | 44.05801 | 6.01009 | 4729 ft | 122 kts | 169° |
| 2026-04-30 19:08 | 44.04962 | 6.01235 | 4729 ft | 123 kts | 169° |
| 2026-04-30 19:09 | 44.03274 | 6.01698 | 4732 ft | 125 kts | 169° |
| 2026-04-30 19:09 | 44.02421 | 6.01930 | 4731 ft | 125 kts | 169° |
| 2026-04-30 19:09 | 44.01576 | 6.02162 | 4728 ft | 126 kts | 169° |
| 2026-04-30 19:10 | 43.99865 | 6.02633 | 4733 ft | 125 kts | 169° |
| 2026-04-30 19:10 | 43.98167 | 6.03098 | 4731 ft | 124 kts | 169° |
| 2026-04-30 19:11 | 43.97320 | 6.03332 | 4730 ft | 124 kts | 169° |
| 2026-04-30 19:11 | 43.95624 | 6.03801 | 4730 ft | 124 kts | 169° |
| 2026-04-30 19:11 | 43.94780 | 6.04036 | 4730 ft | 124 kts | 169° |
| 2026-04-30 19:12 | 43.93932 | 6.04274 | 4726 ft | 124 kts | 169° |
| 2026-04-30 19:12 | 43.93090 | 6.04513 | 4724 ft | 124 kts | 169° |
| 2026-04-30 19:12 | 43.92270 | 6.04749 | 4713 ft | 110 kts | 168° |
| 2026-04-30 19:13 | 43.90870 | 6.05149 | 4714 ft | 101 kts | 168° |
| 2026-04-30 19:13 | 43.91346 | 6.05873 | 4557 ft | 112 kts | 4° |
| 2026-04-30 19:13 | 43.91611 | 6.06677 | 4478 ft | 125 kts | 144° |
| 2026-04-30 19:14 | 43.90991 | 6.06229 | 4629 ft | 107 kts | 262° |
| 2026-04-30 19:14 | 43.90489 | 6.06079 | 4553 ft | 123 kts | 114° |
| 2026-04-30 19:14 | 43.90195 | 6.07103 | 4532 ft | 126 kts | 145° |
| 2026-04-30 19:14 | 43.89442 | 6.07632 | 3940 ft | 133 kts | 152° |
| 2026-04-30 19:15 | 43.88781 | 6.08120 | 4351 ft | 112 kts | 148° |
| 2026-04-30 19:15 | 43.87876 | 6.09383 | 4382 ft | 102 kts | 119° |
| 2026-04-30 19:15 | 43.87467 | 6.10164 | 4030 ft | 99 kts | 156° |
| 2026-04-30 19:16 | 43.86743 | 6.10384 | 3903 ft | 118 kts | 206° |
| 2026-04-30 19:16 | 43.86006 | 6.10306 | 4047 ft | 96 kts | 162° |
| 2026-04-30 19:16 | 43.85203 | 6.11330 | 4052 ft | 50 kts | 132° |
| 2026-04-30 19:17 | 43.84835 | 6.11767 | 4216 ft | 64 kts | 131° |
| 2026-04-30 19:17 | 43.83873 | 6.12536 | 4617 ft | 90 kts | 152° |
| 2026-04-30 19:17 | 43.83328 | 6.12723 | 5086 ft | 68 kts | 157° |
| 2026-04-30 19:18 | 43.82616 | 6.12928 | 5534 ft | 50 kts | 146° |
| 2026-04-30 19:18 | 43.81843 | 6.13401 | 5349 ft | 103 kts | 146° |
| 2026-04-30 19:18 | 43.81152 | 6.13707 | 5411 ft | 108 kts | 173° |
| 2026-04-30 19:19 | 43.80538 | 6.14064 | 5610 ft | 87 kts | 150° |
| 2026-04-30 19:19 | 43.79996 | 6.14470 | 5699 ft | 85 kts | 149° |
| 2026-04-30 19:19 | 43.79093 | 6.15433 | 5854 ft | 86 kts | 118° |
| 2026-04-30 19:20 | 43.78843 | 6.16177 | 5927 ft | 87 kts | 111° |
| 2026-04-30 19:20 | 43.78644 | 6.17020 | 5916 ft | 94 kts | 121° |
| 2026-04-30 19:20 | 43.77765 | 6.18654 | 6064 ft | 119 kts | 138° |
| 2026-04-30 19:21 | 43.77184 | 6.19567 | 6017 ft | 132 kts | 134° |
| 2026-04-30 19:21 | 43.75968 | 6.21282 | 5898 ft | 119 kts | 135° |
| 2026-04-30 19:22 | 43.74766 | 6.22791 | 5507 ft | 129 kts | 102° |
| 2026-04-30 19:22 | 43.72928 | 6.24973 | 5778 ft | 117 kts | 141° |
| 2026-04-30 19:23 | 43.71362 | 6.26515 | 5701 ft | 73 kts | 141° |
| 2026-04-30 19:24 | 43.70382 | 6.27286 | 5381 ft | 122 kts | 240° |
| 2026-04-30 19:24 | 43.69980 | 6.27353 | 5369 ft | 89 kts | 85° |
| 2026-04-30 19:24 | 43.69474 | 6.28757 | 5625 ft | 71 kts | 123° |
| 2026-04-30 19:25 | 43.68594 | 6.31324 | 5702 ft | 128 kts | 114° |
| 2026-04-30 19:26 | 43.67552 | 6.32998 | 5833 ft | 107 kts | 143° |
| 2026-04-30 19:26 | 43.66420 | 6.33877 | 5805 ft | 69 kts | 138° |
| 2026-04-30 19:26 | 43.66290 | 6.34475 | 5777 ft | 78 kts | 82° |
| 2026-04-30 19:27 | 43.66240 | 6.36408 | 5969 ft | 113 kts | 102° |
| 2026-04-30 19:27 | 43.65742 | 6.38615 | 6244 ft | 124 kts | 107° |
| 2026-04-30 19:28 | 43.65394 | 6.39849 | 6048 ft | 147 kts | 112° |
| 2026-04-30 19:28 | 43.64630 | 6.42380 | 5802 ft | 127 kts | 108° |
| 2026-04-30 19:29 | 43.63892 | 6.44630 | 5851 ft | 126 kts | 116° |
| 2026-04-30 19:29 | 43.63493 | 6.45737 | 5698 ft | 129 kts | 114° |
| 2026-04-30 19:30 | 43.62368 | 6.48769 | 5503 ft | 130 kts | 112° |
| 2026-04-30 19:30 | 43.61698 | 6.50400 | 5601 ft | 70 kts | 116° |
| 2026-04-30 19:31 | 43.61181 | 6.51222 | 5587 ft | 61 kts | 149° |
| 2026-04-30 19:31 | 43.60473 | 6.51285 | 5138 ft | 131 kts | 158° |
| 2026-04-30 19:31 | 43.58795 | 6.52737 | 4642 ft | 141 kts | 124° |
| 2026-04-30 19:32 | 43.58185 | 6.53546 | 4683 ft | 121 kts | 129° |
| 2026-04-30 19:32 | 43.57558 | 6.54347 | 4690 ft | 114 kts | 128° |
| 2026-04-30 19:32 | 43.57225 | 6.55197 | 4777 ft | 82 kts | 107° |
| 2026-04-30 19:32 | 43.56868 | 6.55995 | 4638 ft | 113 kts | 112° |
| 2026-04-30 19:33 | 43.56518 | 6.56840 | 4657 ft | 95 kts | 109° |
| 2026-04-30 19:33 | 43.56196 | 6.57736 | 4668 ft | 114 kts | 110° |
| 2026-04-30 19:33 | 43.55886 | 6.58523 | 4969 ft | 59 kts | 113° |
| 2026-04-30 19:33 | 43.55572 | 6.59361 | 4702 ft | 112 kts | 110° |
| 2026-04-30 19:34 | 43.55245 | 6.60225 | 4593 ft | 109 kts | 113° |
| 2026-04-30 19:34 | 43.54978 | 6.60822 | 4611 ft | 54 kts | 115° |
| 2026-04-30 19:34 | 43.54352 | 6.62205 | 4375 ft | 92 kts | 99° |
| 2026-04-30 19:35 | 43.54623 | 6.62910 | 4523 ft | 77 kts | 75° |
| 2026-04-30 19:35 | 43.54464 | 6.63642 | 4476 ft | 88 kts | 79° |
| 2026-04-30 19:35 | 43.54466 | 6.64468 | 4590 ft | 82 kts | 93° |
| 2026-04-30 19:35 | 43.54414 | 6.65245 | 4747 ft | 87 kts | 90° |
| 2026-04-30 19:36 | 43.54347 | 6.66168 | 4667 ft | 112 kts | 90° |
| 2026-04-30 19:36 | 43.54318 | 6.67260 | 4755 ft | 113 kts | 91° |
| 2026-04-30 19:36 | 43.54240 | 6.69289 | 4656 ft | 107 kts | 91° |
| 2026-04-30 19:37 | 43.54184 | 6.70377 | 4614 ft | 110 kts | 94° |
| 2026-04-30 19:37 | 43.54113 | 6.71266 | 4582 ft | 80 kts | 88° |
| 2026-04-30 19:37 | 43.54072 | 6.72125 | 4699 ft | 98 kts | 92° |
| 2026-04-30 19:37 | 43.54024 | 6.73164 | 4667 ft | 120 kts | 92° |
| 2026-04-30 19:38 | 43.53930 | 6.74341 | 4664 ft | 125 kts | 93° |
| 2026-04-30 19:38 | 43.53885 | 6.75450 | 4349 ft | 115 kts | 92° |
| 2026-04-30 19:38 | 43.53831 | 6.76452 | 4316 ft | 95 kts | 92° |
| 2026-04-30 19:38 | 43.53779 | 6.77411 | 4234 ft | 102 kts | 92° |
| 2026-04-30 19:39 | 43.53728 | 6.78394 | 4466 ft | 101 kts | 91° |
| 2026-04-30 19:39 | 43.53652 | 6.79351 | 4666 ft | 104 kts | 96° |
| 2026-04-30 19:39 | 43.53459 | 6.80396 | 4508 ft | 129 kts | 98° |
| 2026-04-30 19:39 | 43.53323 | 6.81731 | 4210 ft | 143 kts | 96° |
| 2026-04-30 19:40 | 43.53181 | 6.83144 | 3706 ft | 158 kts | 90° |
| 2026-04-30 19:40 | 43.53187 | 6.84173 | 3202 ft | 163 kts | 87° |
| 2026-04-30 19:40 | 43.53248 | 6.86028 | 2474 ft | 130 kts | 84° |
| 2026-04-30 19:40 | 43.53296 | 6.86929 | 2081 ft | 148 kts | 87° |
| 2026-04-30 19:41 | 43.53340 | 6.88211 | 1712 ft | 121 kts | 86° |
| 2026-04-30 19:41 | 43.53351 | 6.89606 | 1406 ft | 117 kts | 94° |
| 2026-04-30 19:41 | 43.53292 | 6.90334 | 1363 ft | 100 kts | 90° |
| 2026-04-30 19:41 | 43.53435 | 6.91179 | 1201 ft | 87 kts | 73° |
| 2026-04-30 19:42 | 43.53619 | 6.91936 | 1057 ft | 82 kts | 72° |
| 2026-04-30 19:42 | 43.53822 | 6.92683 | 799 ft | 86 kts | 66° |
| 2026-04-30 19:42 | 43.54172 | 6.93316 | 669 ft | 76 kts | 57° |
| 2026-04-30 19:42 | 43.54431 | 6.93899 | 581 ft | 66 kts | 77° |
| 2026-04-30 19:43 | 43.54170 | 6.94348 | 440 ft | 75 kts | 162° |
| 2026-04-30 19:43 | 43.53717 | 6.94574 | 363 ft | 67 kts | 127° |
| 2026-04-30 19:43 | 43.53907 | 6.95128 | 159 ft | 77 kts | 41° |
| 2026-04-30 19:44 | 43.54800 | 6.95087 | 40 ft | 57 kts | 351° |
| 2026-04-30 19:44 | 43.55237 | 6.95029 | 250 ft | 62 kts | 353° |
| 2026-04-30 19:44 | 43.55653 | 6.94910 | 402 ft | 59 kts | 345° |
| 2026-04-30 19:44 | 43.55951 | 6.94584 | 585 ft | 68 kts | 252° |
| 2026-04-30 19:45 | 43.55488 | 6.94431 | 597 ft | 80 kts | 170° |
| 2026-04-30 19:45 | 43.54973 | 6.94459 | 554 ft | 70 kts | 169° |
| 2026-04-30 19:45 | 43.54506 | 6.94467 | 572 ft | 62 kts | 167° |
| 2026-04-30 19:45 | 43.54066 | 6.94476 | 595 ft | 63 kts | 165° |
| 2026-04-30 19:46 | 43.53692 | 6.94698 | 630 ft | 54 kts | 121° |
| 2026-04-30 19:46 | 43.53820 | 6.95170 | 401 ft | 76 kts | 33° |
| 2026-04-30 19:46 | 43.54391 | 6.95157 | 27 ft | 82 kts | 354° |
| 2026-04-30 19:46 | 43.54877 | 6.95074 | 34 ft | 72 kts | 351° |
| 2026-04-30 19:47 | 43.55512 | 6.94954 | 85 ft | 108 kts | 351° |
| 2026-04-30 19:47 | 43.55483 | 6.94587 | 365 ft | 77 kts | 192° |
| 2026-04-30 19:47 | 43.54832 | 6.94561 | 528 ft | 64 kts | 168° |
| 2026-04-30 19:47 | 43.54370 | 6.94538 | 540 ft | 65 kts | 163° |
| 2026-04-30 19:48 | 43.53934 | 6.94604 | 578 ft | 58 kts | 162° |
| 2026-04-30 19:48 | 43.53543 | 6.94716 | 638 ft | 57 kts | 144° |
| 2026-04-30 19:48 | 43.53475 | 6.95129 | 581 ft | 64 kts | 42° |
| 2026-04-30 19:48 | 43.54005 | 6.95222 | 165 ft | 89 kts | 8° |
| 2026-04-30 19:49 | 43.54558 | 6.95125 | 14 ft | 67 kts | 5° |
| 2026-04-30 19:49 | 43.55401 | 6.94962 | 251 ft | 55 kts | 353° |
| 2026-04-30 19:49 | 43.55792 | 6.94829 | 443 ft | 64 kts | 349° |
| 2026-04-30 19:50 | 43.56049 | 6.95025 | 611 ft | 54 kts | 102° |
| 2026-04-30 19:50 | 43.55646 | 6.95364 | 577 ft | 74 kts | 142° |
| 2026-04-30 19:50 | 43.55203 | 6.95686 | 627 ft | 71 kts | 140° |
| 2026-04-30 19:50 | 43.54792 | 6.96076 | 631 ft | 68 kts | 137° |
| 2026-04-30 19:51 | 43.54406 | 6.96413 | 813 ft | 65 kts | 137° |
| 2026-04-30 19:51 | 43.53985 | 6.96739 | 845 ft | 76 kts | 139° |
| 2026-04-30 19:51 | 43.53463 | 6.96425 | 758 ft | 121 kts | 263° |
| 2026-04-30 19:51 | 43.53674 | 6.95439 | 482 ft | 95 kts | 333° |
| 2026-04-30 19:52 | 43.54240 | 6.95188 | 127 ft | 84 kts | 12° |
| 2026-04-30 19:52 | 43.54754 | 6.95096 | 137 ft | 59 kts | 356° |
| 2026-04-30 19:52 | 43.55106 | 6.95027 | 421 ft | 47 kts | 359° |
| 2026-04-30 19:52 | 43.55424 | 6.95127 | 609 ft | 68 kts | 46° |
| 2026-04-30 19:53 | 43.55377 | 6.95530 | 669 ft | 66 kts | 156° |
| 2026-04-30 19:53 | 43.54933 | 6.95569 | 712 ft | 72 kts | 168° |
| 2026-04-30 19:53 | 43.54436 | 6.95636 | 498 ft | 81 kts | 162° |
| 2026-04-30 19:53 | 43.53959 | 6.95529 | 397 ft | 78 kts | 247° |
| 2026-04-30 19:54 | 43.54330 | 6.95154 | 52 ft | 79 kts | 359° |
| 2026-04-30 19:54 | 43.54795 | 6.95088 | 35 ft | 58 kts | 354° |
| 2026-04-30 19:54 | 43.55215 | 6.95024 | 247 ft | 61 kts | 352° |
| 2026-04-30 19:54 | 43.55639 | 6.94995 | 502 ft | 55 kts | 22° |
| 2026-04-30 19:55 | 43.55679 | 6.95267 | 754 ft | 48 kts | 131° |
| 2026-04-30 19:55 | 43.55322 | 6.95008 | 966 ft | 81 kts | 229° |
| 2026-04-30 19:55 | 43.54939 | 6.94556 | 980 ft | 71 kts | 168° |
| 2026-04-30 19:55 | 43.54473 | 6.94543 | 874 ft | 67 kts | 159° |
| 2026-04-30 19:56 | 43.54053 | 6.94702 | 619 ft | 60 kts | 112° |
| 2026-04-30 19:56 | 43.54293 | 6.95167 | 63 ft | 91 kts | 0° |
| 2026-04-30 19:56 | 43.54827 | 6.95082 | 19 ft | 64 kts | 352° |
| 2026-04-30 19:56 | 43.55157 | 6.95152 | 543 ft | 57 kts | 37° |
| 2026-04-30 19:57 | 43.55468 | 6.95536 | 1196 ft | 65 kts | 66° |
| 2026-04-30 19:57 | 43.55023 | 6.95459 | 993 ft | 81 kts | 184° |
| 2026-04-30 19:57 | 43.54567 | 6.95343 | 948 ft | 55 kts | 153° |
| 2026-04-30 19:57 | 43.54216 | 6.95359 | 863 ft | 51 kts | 152° |
| 2026-04-30 19:58 | 43.53778 | 6.95304 | 389 ft | 89 kts | 191° |
| 2026-04-30 19:58 | 43.53660 | 6.94644 | 357 ft | 84 kts | 236° |
| 2026-04-30 19:58 | 43.53206 | 6.94364 | 387 ft | 79 kts | 246° |
| 2026-04-30 19:58 | 43.53539 | 6.94142 | 447 ft | 65 kts | 58° |
| 2026-04-30 19:59 | 43.53794 | 6.94679 | 381 ft | 66 kts | 62° |
| 2026-04-30 19:59 | 43.54114 | 6.95137 | 107 ft | 71 kts | 27° |
| 2026-04-30 19:59 | 43.54928 | 6.95063 | 10 ft | 28 kts | 353° |
| 2026-04-30 20:00 | 43.55002 | 6.95141 | 11 ft | 13 kts | 80° |
| 2026-04-30 20:00 | 43.54967 | 6.95222 | 12 ft | 10 kts | 173° |
| 2026-04-30 20:00 | 43.54913 | 6.95235 | 12 ft | 6 kts | 182° |
| 2026-04-30 20:00 | 43.54910 | 6.95242 | 12 ft | 0 kts | 31° |